»·PEaware :: N333ZA KSBP-KBUR

N333ZA :: KSBP-KBUR

FLIGHT INFORMATION

Flight Status: Arrived
Operator: Privately registered:
United States
More flights under this callsign
Pilot: Judd H. (29974)
Aircraft: CESSNA 210 CENTURION
(C210)
More flights by this aircraft type
Origin: KSBP San Luis Co Regl
United States
Destination: KBUR Bob Hope-Burbank
United States
More flights between these airports :: More routes between these airports
Route: RZS V186 FIM FERN5
File this flight plan on PilotEdge
Remarks:
Altitude:
(Current/Filed)
9,000ft
Speed:
(Current/Filed)
145kts
Departed: 25-Oct-20 11:47 AM
Arrived: 25-Oct-20 12:53 PM
Distance/Time
Traveled:
129nm/1:06
Distance/Time
To Go:
Arrived

Flight Plot

Page will automatically refresh every two minutes.

Flight plan parsing failed; only flown route is shown


Map Options




Map Legend


Flown Route
Filed Route
Departure Airport
Arrival Airport
Navaid (VOR, NDB)
Fix

Horizontal Profiles

Position Reports

Time Latitude Longitude Heading Altitude Ground
Speed
25-Oct-20 11:19 35.238441 -120.640278 302 215ft 0kts
25-Oct-20 11:20 35.238441 -120.640278 302 215ft 0kts
25-Oct-20 11:21 35.238441 -120.640278 302 215ft 0kts
25-Oct-20 11:22 35.238441 -120.640278 302 215ft 0kts
25-Oct-20 11:23 35.238441 -120.640278 302 215ft 0kts
25-Oct-20 11:24 35.238441 -120.640278 302 215ft 0kts
25-Oct-20 11:25 35.238441 -120.640278 302 215ft 0kts
25-Oct-20 11:26 35.238441 -120.640278 302 215ft 0kts
25-Oct-20 11:27 35.238441 -120.640278 302 215ft 0kts
25-Oct-20 11:28 35.238441 -120.640278 302 215ft 0kts
25-Oct-20 11:29 35.238441 -120.640278 302 215ft 0kts
25-Oct-20 11:30 35.238441 -120.640278 302 215ft 0kts
25-Oct-20 11:31 35.238441 -120.640278 302 215ft 0kts
25-Oct-20 11:32 35.238441 -120.640278 302 215ft 0kts
25-Oct-20 11:33 35.238441 -120.640278 302 215ft 0kts
25-Oct-20 11:34 35.238441 -120.640278 302 215ft 0kts
25-Oct-20 11:35 35.238441 -120.640278 302 215ft 0kts
25-Oct-20 11:36 35.238441 -120.640278 302 215ft 0kts
25-Oct-20 11:37 35.238441 -120.640278 302 215ft 0kts
25-Oct-20 11:38 35.238441 -120.640278 302 215ft 0kts
25-Oct-20 11:39 35.238441 -120.640278 302 215ft 0kts
25-Oct-20 11:40 35.238225 -120.640456 138 215ft 0kts
25-Oct-20 11:41 35.236770 -120.638110 125 215ft 8kts
25-Oct-20 11:42 35.234875 -120.634808 124 215ft 10kts
25-Oct-20 11:43 35.233367 -120.632483 190 215ft 3kts
25-Oct-20 11:44 35.233262 -120.632548 214 215ft 0kts
25-Oct-20 11:45 35.233149 -120.633691 304 215ft 22kts
25-Oct-20 11:46 35.248085 -120.659460 305 973ft 113kts
25-Oct-20 11:47 35.267428 -120.697434 300 1500ft 137kts
25-Oct-20 11:48 35.286473 -120.739357 299 1956ft 140kts
25-Oct-20 11:49 35.304930 -120.779895 301 2615ft 132kts
25-Oct-20 11:50 35.323311 -120.816411 301 3422ft 118kts
25-Oct-20 11:51 35.342316 -120.848109 302 4345ft 110kts
25-Oct-20 11:52 35.362376 -120.879695 301 5005ft 126kts
25-Oct-20 11:53 35.382690 -120.921472 297 5008ft 155kts
25-Oct-20 11:54 35.384184 -120.966538 199 5105ft 149kts
25-Oct-20 11:55 35.355732 -120.937093 128 5664ft 143kts
25-Oct-20 11:56 35.329822 -120.900608 135 6301ft 139kts
25-Oct-20 11:57 35.301714 -120.869271 144 6980ft 137kts
25-Oct-20 11:58 35.269595 -120.836094 144 7059ft 160kts
25-Oct-20 11:59 35.240746 -120.791798 131 7003ft 174kts
25-Oct-20 12:00 35.212105 -120.744359 136 6998ft 171kts
25-Oct-20 12:01 35.181983 -120.699025 134 6998ft 172kts
25-Oct-20 12:02 35.152602 -120.652703 135 6998ft 171kts
25-Oct-20 12:03 35.120922 -120.609652 140 6999ft 169kts
25-Oct-20 12:04 35.087186 -120.568851 140 7007ft 172kts
25-Oct-20 12:05 35.053093 -120.527626 135 7012ft 174kts
25-Oct-20 12:06 35.020648 -120.483482 129 7017ft 175kts
25-Oct-20 12:07 34.991146 -120.435855 129 7023ft 176kts
25-Oct-20 12:08 34.957544 -120.391143 132 7026ft 181kts
25-Oct-20 12:09 34.922990 -120.345583 131 7025ft 183kts
25-Oct-20 12:10 34.889380 -120.298574 130 7024ft 183kts
25-Oct-20 12:11 34.855745 -120.251487 130 7025ft 185kts
25-Oct-20 12:12 34.821525 -120.203936 131 7018ft 186kts
25-Oct-20 12:13 34.787438 -120.156260 129 7013ft 187kts
25-Oct-20 12:14 34.754080 -120.107554 130 7008ft 187kts
25-Oct-20 12:15 34.719574 -120.059686 130 7004ft 188kts
25-Oct-20 12:16 34.684828 -120.012361 132 7000ft 188kts
25-Oct-20 12:17 34.649240 -119.966102 132 6998ft 186kts
25-Oct-20 12:18 34.613952 -119.920196 132 6999ft 185kts
25-Oct-20 12:19 34.578833 -119.873945 130 7003ft 186kts
25-Oct-20 12:20 34.544969 -119.826594 129 7005ft 186kts
25-Oct-20 12:21 34.512097 -119.778110 124 7007ft 185kts
25-Oct-20 12:22 34.483898 -119.726073 121 7015ft 184kts
25-Oct-20 12:23 34.455863 -119.673809 123 7022ft 184kts
25-Oct-20 12:24 34.426815 -119.622468 122 7023ft 184kts
25-Oct-20 12:25 34.398326 -119.570487 122 7017ft 185kts
25-Oct-20 12:26 34.370203 -119.519039 122 7010ft 185kts
25-Oct-20 12:27 34.342123 -119.466965 121 7001ft 183kts
25-Oct-20 12:28 34.318379 -119.413119 93 6991ft 180kts
25-Oct-20 12:29 34.320001 -119.352621 81 6976ft 179kts
25-Oct-20 12:30 34.325036 -119.292527 81 6985ft 179kts
25-Oct-20 12:31 34.330109 -119.232376 82 6987ft 179kts
25-Oct-20 12:32 34.335714 -119.172722 80 6992ft 178kts
25-Oct-20 12:33 34.341199 -119.113056 83 6993ft 178kts
25-Oct-20 12:34 34.344748 -119.055323 83 6986ft 163kts
25-Oct-20 12:35 34.347788 -119.001812 83 7019ft 156kts
25-Oct-20 12:36 34.350957 -118.949575 83 6321ft 152kts
25-Oct-20 12:37 34.355258 -118.899427 81 5617ft 148kts
25-Oct-20 12:38 34.336919 -118.863212 159 4938ft 146kts
25-Oct-20 12:39 34.298677 -118.846069 160 4242ft 145kts
25-Oct-20 12:40 34.271829 -118.817424 119 3842ft 129kts
25-Oct-20 12:42 34.256921 -118.776644 108 3327ft 125kts
25-Oct-20 12:43 34.245918 -118.735158 108 3274ft 139kts
25-Oct-20 12:44 34.232259 -118.691509 111 3415ft 140kts
25-Oct-20 12:45 34.217537 -118.646457 111 3370ft 146kts
25-Oct-20 12:46 34.202641 -118.600250 105 3239ft 150kts
25-Oct-20 12:47 34.200081 -118.550433 91 3094ft 142kts
25-Oct-20 12:48 34.199954 -118.506703 89 3027ft 113kts
25-Oct-20 12:49 34.199145 -118.469524 90 2435ft 112kts
25-Oct-20 12:50 34.198823 -118.432267 91 1831ft 111kts
25-Oct-20 12:51 34.198252 -118.395929 90 1240ft 108kts
25-Oct-20 12:52 34.197872 -118.363024 93 725ft 65kts
25-Oct-20 12:53 34.198393 -118.357984 2 724ft 9kts
25-Oct-20 12:54 34.198862 -118.359938 286 724ft 8kts
25-Oct-20 12:55 34.200442 -118.359262 354 724ft 8kts
25-Oct-20 12:56 34.200891 -118.358953 265 724ft 0kts
25-Oct-20 12:57 34.200891 -118.358953 265 724ft 0kts
25-Oct-20 12:58 34.200891 -118.358953 265 724ft 0kts
25-Oct-20 12:58 34.200891 -118.358953 265 724ft 0kts
25-Oct-20 13:00 34.200891 -118.358953 265 724ft 0kts
25-Oct-20 13:00 34.200891 -118.358953 265 724ft 0kts
25-Oct-20 13:02 34.200891 -118.358953 265 724ft 0kts
25-Oct-20 13:02 34.200891 -118.358953 265 724ft 0kts
25-Oct-20 13:03 34.200891 -118.358953 265 724ft 0kts
25-Oct-20 13:04 34.200891 -118.358953 265 724ft 0kts
25-Oct-20 13:05 34.200891 -118.358953 265 724ft 0kts
25-Oct-20 13:06 34.200891 -118.358953 265 724ft 0kts

Navigation Log

Ident Type
Flight plan parsing failed, navigation log unavailable